sensor_id;sensor_type;location;lat;lon;timestamp;P1;durP1;ratioP1;P2;durP2;ratioP2
74152;SDS011;62505;46.070;14.492;2023-07-31T00:00:19;2.22;;;1.00;;
74152;SDS011;62505;46.070;14.492;2023-07-31T00:02:46;1.58;;;1.00;;
74152;SDS011;62505;46.070;14.492;2023-07-31T00:05:13;1.20;;;0.98;;
74152;SDS011;62505;46.070;14.492;2023-07-31T00:07:41;2.05;;;1.00;;
74152;SDS011;62505;46.070;14.492;2023-07-31T00:10:09;4.18;;;1.00;;
74152;SDS011;62505;46.070;14.492;2023-07-31T00:12:37;0.93;;;0.73;;
74152;SDS011;62505;46.070;14.492;2023-07-31T00:15:05;1.92;;;1.02;;
74152;SDS011;62505;46.070;14.492;2023-07-31T00:17:32;3.38;;;0.95;;
74152;SDS011;62505;46.070;14.492;2023-07-31T00:19:59;1.63;;;1.10;;
74152;SDS011;62505;46.070;14.492;2023-07-31T00:22:26;1.65;;;1.00;;
74152;SDS011;62505;46.070;14.492;2023-07-31T00:24:53;1.05;;;0.85;;
74152;SDS011;62505;46.070;14.492;2023-07-31T00:27:20;2.60;;;1.05;;
74152;SDS011;62505;46.070;14.492;2023-07-31T00:29:48;3.90;;;0.95;;
74152;SDS011;62505;46.070;14.492;2023-07-31T00:32:15;2.13;;;0.90;;
74152;SDS011;62505;46.070;14.492;2023-07-31T00:34:42;1.45;;;0.95;;
74152;SDS011;62505;46.070;14.492;2023-07-31T00:37:09;4.07;;;0.82;;
74152;SDS011;62505;46.070;14.492;2023-07-31T00:39:36;3.25;;;0.85;;
74152;SDS011;62505;46.070;14.492;2023-07-31T00:42:03;1.15;;;0.90;;
74152;SDS011;62505;46.070;14.492;2023-07-31T00:44:30;2.30;;;0.90;;
74152;SDS011;62505;46.070;14.492;2023-07-31T00:46:58;1.58;;;1.10;;
74152;SDS011;62505;46.070;14.492;2023-07-31T00:49:26;1.02;;;0.80;;
74152;SDS011;62505;46.070;14.492;2023-07-31T00:51:53;2.42;;;1.00;;
74152;SDS011;62505;46.070;14.492;2023-07-31T00:54:22;5.15;;;1.08;;
74152;SDS011;62505;46.070;14.492;2023-07-31T00:56:49;4.15;;;1.00;;
74152;SDS011;62505;46.070;14.492;2023-07-31T00:59:18;2.85;;;1.10;;
74152;SDS011;62505;46.070;14.492;2023-07-31T01:01:45;1.55;;;1.00;;
74152;SDS011;62505;46.070;14.492;2023-07-31T01:04:14;1.10;;;1.00;;
74152;SDS011;62505;46.070;14.492;2023-07-31T01:06:44;2.70;;;0.85;;
74152;SDS011;62505;46.070;14.492;2023-07-31T01:09:16;2.33;;;1.05;;
74152;SDS011;62505;46.070;14.492;2023-07-31T01:11:52;2.78;;;1.00;;
74152;SDS011;62505;46.070;14.492;2023-07-31T01:14:24;1.05;;;0.98;;
74152;SDS011;62505;46.070;14.492;2023-07-31T01:16:51;1.40;;;0.93;;
74152;SDS011;62505;46.070;14.492;2023-07-31T01:19:21;2.72;;;1.00;;
74152;SDS011;62505;46.070;14.492;2023-07-31T01:22:05;2.70;;;1.15;;
74152;SDS011;62505;46.070;14.492;2023-07-31T01:24:51;1.73;;;1.27;;
74152;SDS011;62505;46.070;14.492;2023-07-31T01:27:27;4.10;;;1.20;;
74152;SDS011;62505;46.070;14.492;2023-07-31T01:30:00;2.30;;;0.98;;
74152;SDS011;62505;46.070;14.492;2023-07-31T01:32:35;4.25;;;1.02;;
74152;SDS011;62505;46.070;14.492;2023-07-31T01:35:05;1.45;;;0.98;;
74152;SDS011;62505;46.070;14.492;2023-07-31T01:37:33;2.15;;;1.20;;
74152;SDS011;62505;46.070;14.492;2023-07-31T01:40:00;3.10;;;1.10;;
74152;SDS011;62505;46.070;14.492;2023-07-31T01:42:28;1.63;;;0.95;;
74152;SDS011;62505;46.070;14.492;2023-07-31T01:44:55;1.95;;;1.00;;
74152;SDS011;62505;46.070;14.492;2023-07-31T01:47:22;2.63;;;1.20;;
74152;SDS011;62505;46.070;14.492;2023-07-31T01:49:49;1.65;;;1.10;;
74152;SDS011;62505;46.070;14.492;2023-07-31T01:52:16;1.95;;;1.27;;
74152;SDS011;62505;46.070;14.492;2023-07-31T01:54:43;4.00;;;1.58;;
74152;SDS011;62505;46.070;14.492;2023-07-31T01:57:10;1.50;;;1.00;;
74152;SDS011;62505;46.070;14.492;2023-07-31T01:59:38;1.55;;;1.10;;
74152;SDS011;62505;46.070;14.492;2023-07-31T02:02:05;0.93;;;0.82;;
74152;SDS011;62505;46.070;14.492;2023-07-31T02:04:32;1.52;;;1.13;;
74152;SDS011;62505;46.070;14.492;2023-07-31T02:06:59;3.40;;;1.15;;
74152;SDS011;62505;46.070;14.492;2023-07-31T02:09:26;3.42;;;1.40;;
74152;SDS011;62505;46.070;14.492;2023-07-31T02:11:53;1.48;;;1.25;;
74152;SDS011;62505;46.070;14.492;2023-07-31T02:14:20;1.73;;;1.05;;
74152;SDS011;62505;46.070;14.492;2023-07-31T02:16:48;2.35;;;1.08;;
74152;SDS011;62505;46.070;14.492;2023-07-31T02:19:15;1.77;;;1.00;;
74152;SDS011;62505;46.070;14.492;2023-07-31T02:21:42;1.20;;;0.93;;
74152;SDS011;62505;46.070;14.492;2023-07-31T02:24:08;2.22;;;1.10;;
74152;SDS011;62505;46.070;14.492;2023-07-31T02:26:36;1.88;;;0.90;;
74152;SDS011;62505;46.070;14.492;2023-07-31T02:29:03;2.28;;;1.00;;
74152;SDS011;62505;46.070;14.492;2023-07-31T02:31:30;2.33;;;1.48;;
74152;SDS011;62505;46.070;14.492;2023-07-31T02:33:58;2.00;;;1.23;;
74152;SDS011;62505;46.070;14.492;2023-07-31T02:36:25;2.17;;;0.95;;
74152;SDS011;62505;46.070;14.492;2023-07-31T02:38:52;1.20;;;1.05;;
74152;SDS011;62505;46.070;14.492;2023-07-31T02:41:19;2.88;;;1.23;;
74152;SDS011;62505;46.070;14.492;2023-07-31T02:43:45;3.90;;;0.90;;
74152;SDS011;62505;46.070;14.492;2023-07-31T02:46:12;3.50;;;1.42;;
74152;SDS011;62505;46.070;14.492;2023-07-31T02:48:39;3.20;;;1.40;;
74152;SDS011;62505;46.070;14.492;2023-07-31T02:51:07;1.35;;;1.00;;
74152;SDS011;62505;46.070;14.492;2023-07-31T02:53:34;1.23;;;0.85;;
74152;SDS011;62505;46.070;14.492;2023-07-31T02:56:01;1.38;;;1.00;;
74152;SDS011;62505;46.070;14.492;2023-07-31T02:58:28;4.13;;;1.38;;
74152;SDS011;62505;46.070;14.492;2023-07-31T03:00:55;1.77;;;1.13;;
74152;SDS011;62505;46.070;14.492;2023-07-31T03:03:21;2.50;;;1.20;;
74152;SDS011;62505;46.070;14.492;2023-07-31T03:05:48;2.58;;;1.05;;
74152;SDS011;62505;46.070;14.492;2023-07-31T03:08:16;3.55;;;1.38;;
74152;SDS011;62505;46.070;14.492;2023-07-31T03:10:43;2.88;;;1.30;;
74152;SDS011;62505;46.070;14.492;2023-07-31T03:13:10;3.60;;;1.20;;
74152;SDS011;62505;46.070;14.492;2023-07-31T03:15:37;3.92;;;1.02;;
74152;SDS011;62505;46.070;14.492;2023-07-31T03:18:04;5.32;;;0.98;;
74152;SDS011;62505;46.070;14.492;2023-07-31T03:20:31;2.05;;;1.02;;
74152;SDS011;62505;46.070;14.492;2023-07-31T03:22:58;3.72;;;1.20;;
74152;SDS011;62505;46.070;14.492;2023-07-31T03:25:26;2.88;;;1.45;;
74152;SDS011;62505;46.070;14.492;2023-07-31T03:27:53;3.08;;;1.10;;
74152;SDS011;62505;46.070;14.492;2023-07-31T03:30:19;2.33;;;1.25;;
74152;SDS011;62505;46.070;14.492;2023-07-31T03:32:46;2.08;;;0.93;;
74152;SDS011;62505;46.070;14.492;2023-07-31T03:35:13;1.70;;;1.10;;
74152;SDS011;62505;46.070;14.492;2023-07-31T03:37:40;3.42;;;1.10;;
74152;SDS011;62505;46.070;14.492;2023-07-31T03:40:07;2.03;;;1.10;;
74152;SDS011;62505;46.070;14.492;2023-07-31T03:42:37;2.03;;;1.10;;
74152;SDS011;62505;46.070;14.492;2023-07-31T03:45:04;2.38;;;1.30;;
74152;SDS011;62505;46.070;14.492;2023-07-31T03:47:32;2.63;;;1.00;;
74152;SDS011;62505;46.070;14.492;2023-07-31T03:49:59;2.08;;;1.00;;
74152;SDS011;62505;46.070;14.492;2023-07-31T03:52:26;5.90;;;1.00;;
74152;SDS011;62505;46.070;14.492;2023-07-31T03:54:52;2.05;;;1.00;;
74152;SDS011;62505;46.070;14.492;2023-07-31T03:57:19;2.00;;;1.17;;
74152;SDS011;62505;46.070;14.492;2023-07-31T03:59:47;2.17;;;1.38;;
74152;SDS011;62505;46.070;14.492;2023-07-31T04:02:14;2.05;;;1.10;;
74152;SDS011;62505;46.070;14.492;2023-07-31T04:04:43;3.95;;;1.23;;
74152;SDS011;62505;46.070;14.492;2023-07-31T04:07:10;2.15;;;1.08;;
74152;SDS011;62505;46.070;14.492;2023-07-31T04:09:37;8.13;;;1.88;;
74152;SDS011;62505;46.070;14.492;2023-07-31T04:12:04;5.25;;;1.38;;
74152;SDS011;62505;46.070;14.492;2023-07-31T04:14:31;6.05;;;1.45;;
74152;SDS011;62505;46.070;14.492;2023-07-31T04:16:59;8.35;;;1.60;;
74152;SDS011;62505;46.070;14.492;2023-07-31T04:19:26;6.90;;;1.88;;
74152;SDS011;62505;46.070;14.492;2023-07-31T04:21:53;5.75;;;1.23;;
74152;SDS011;62505;46.070;14.492;2023-07-31T04:24:20;8.52;;;2.05;;
74152;SDS011;62505;46.070;14.492;2023-07-31T04:26:49;8.68;;;2.10;;
74152;SDS011;62505;46.070;14.492;2023-07-31T04:29:16;4.70;;;1.67;;
74152;SDS011;62505;46.070;14.492;2023-07-31T04:31:43;7.28;;;1.60;;
74152;SDS011;62505;46.070;14.492;2023-07-31T04:34:11;5.05;;;1.70;;
74152;SDS011;62505;46.070;14.492;2023-07-31T04:36:38;9.07;;;2.25;;
74152;SDS011;62505;46.070;14.492;2023-07-31T04:39:05;6.63;;;1.83;;
74152;SDS011;62505;46.070;14.492;2023-07-31T04:41:32;11.77;;;1.73;;
74152;SDS011;62505;46.070;14.492;2023-07-31T04:43:59;5.60;;;1.25;;
74152;SDS011;62505;46.070;14.492;2023-07-31T04:46:25;11.65;;;2.05;;
74152;SDS011;62505;46.070;14.492;2023-07-31T04:48:52;3.58;;;1.23;;
74152;SDS011;62505;46.070;14.492;2023-07-31T04:51:20;5.50;;;1.60;;
74152;SDS011;62505;46.070;14.492;2023-07-31T04:53:48;6.05;;;1.60;;
74152;SDS011;62505;46.070;14.492;2023-07-31T04:56:15;5.13;;;1.80;;
74152;SDS011;62505;46.070;14.492;2023-07-31T04:58:42;5.93;;;1.98;;
74152;SDS011;62505;46.070;14.492;2023-07-31T05:01:09;3.10;;;1.40;;
74152;SDS011;62505;46.070;14.492;2023-07-31T05:03:36;6.60;;;1.80;;
74152;SDS011;62505;46.070;14.492;2023-07-31T05:06:03;5.43;;;1.13;;
74152;SDS011;62505;46.070;14.492;2023-07-31T05:08:31;7.68;;;1.30;;
74152;SDS011;62505;46.070;14.492;2023-07-31T05:10:58;3.75;;;1.40;;
74152;SDS011;62505;46.070;14.492;2023-07-31T05:13:25;3.20;;;1.20;;
74152;SDS011;62505;46.070;14.492;2023-07-31T05:15:52;5.38;;;1.55;;
74152;SDS011;62505;46.070;14.492;2023-07-31T05:18:19;3.92;;;1.40;;
74152;SDS011;62505;46.070;14.492;2023-07-31T05:20:46;3.42;;;1.60;;
74152;SDS011;62505;46.070;14.492;2023-07-31T05:23:13;3.72;;;1.77;;
74152;SDS011;62505;46.070;14.492;2023-07-31T05:25:41;3.55;;;1.48;;
74152;SDS011;62505;46.070;14.492;2023-07-31T05:28:08;6.03;;;1.60;;
74152;SDS011;62505;46.070;14.492;2023-07-31T05:30:34;3.65;;;1.52;;
74152;SDS011;62505;46.070;14.492;2023-07-31T05:33:01;3.55;;;1.35;;
74152;SDS011;62505;46.070;14.492;2023-07-31T05:35:28;2.60;;;1.25;;
74152;SDS011;62505;46.070;14.492;2023-07-31T05:37:55;4.00;;;1.52;;
74152;SDS011;62505;46.070;14.492;2023-07-31T05:40:22;2.58;;;1.27;;
74152;SDS011;62505;46.070;14.492;2023-07-31T05:42:50;2.58;;;1.70;;
74152;SDS011;62505;46.070;14.492;2023-07-31T05:45:17;5.00;;;1.40;;
74152;SDS011;62505;46.070;14.492;2023-07-31T05:47:44;2.90;;;1.50;;
74152;SDS011;62505;46.070;14.492;2023-07-31T05:50:11;2.38;;;1.55;;
74152;SDS011;62505;46.070;14.492;2023-07-31T05:52:39;2.80;;;1.52;;
74152;SDS011;62505;46.070;14.492;2023-07-31T05:55:06;2.40;;;1.25;;
74152;SDS011;62505;46.070;14.492;2023-07-31T05:57:34;6.53;;;2.17;;
74152;SDS011;62505;46.070;14.492;2023-07-31T06:00:03;4.40;;;1.45;;
74152;SDS011;62505;46.070;14.492;2023-07-31T06:02:30;3.35;;;1.60;;
74152;SDS011;62505;46.070;14.492;2023-07-31T06:05:01;2.45;;;1.40;;
74152;SDS011;62505;46.070;14.492;2023-07-31T06:07:30;2.05;;;1.30;;
74152;SDS011;62505;46.070;14.492;2023-07-31T06:09:57;5.90;;;1.88;;
74152;SDS011;62505;46.070;14.492;2023-07-31T06:12:28;1.75;;;1.23;;
74152;SDS011;62505;46.070;14.492;2023-07-31T06:14:55;2.55;;;1.33;;
74152;SDS011;62505;46.070;14.492;2023-07-31T06:17:23;6.18;;;1.52;;
74152;SDS011;62505;46.070;14.492;2023-07-31T06:19:51;2.20;;;1.33;;
74152;SDS011;62505;46.070;14.492;2023-07-31T06:22:18;1.42;;;1.20;;
74152;SDS011;62505;46.070;14.492;2023-07-31T06:24:45;4.13;;;1.70;;
74152;SDS011;62505;46.070;14.492;2023-07-31T06:27:12;3.95;;;1.60;;
74152;SDS011;62505;46.070;14.492;2023-07-31T06:29:39;3.20;;;1.60;;
74152;SDS011;62505;46.070;14.492;2023-07-31T06:32:06;3.90;;;1.80;;
74152;SDS011;62505;46.070;14.492;2023-07-31T06:34:35;3.90;;;1.30;;
74152;SDS011;62505;46.070;14.492;2023-07-31T06:37:02;4.32;;;1.63;;
74152;SDS011;62505;46.070;14.492;2023-07-31T06:39:28;2.22;;;1.70;;
74152;SDS011;62505;46.070;14.492;2023-07-31T06:41:55;3.17;;;1.73;;
74152;SDS011;62505;46.070;14.492;2023-07-31T06:44:22;2.63;;;1.98;;
74152;SDS011;62505;46.070;14.492;2023-07-31T06:46:49;5.40;;;1.80;;
74152;SDS011;62505;46.070;14.492;2023-07-31T06:49:16;3.35;;;1.35;;
74152;SDS011;62505;46.070;14.492;2023-07-31T06:51:44;5.82;;;1.67;;
74152;SDS011;62505;46.070;14.492;2023-07-31T06:54:11;4.43;;;1.70;;
74152;SDS011;62505;46.070;14.492;2023-07-31T06:56:38;2.03;;;1.30;;
74152;SDS011;62505;46.070;14.492;2023-07-31T06:59:05;2.72;;;1.40;;
74152;SDS011;62505;46.070;14.492;2023-07-31T07:01:32;3.92;;;1.45;;
74152;SDS011;62505;46.070;14.492;2023-07-31T07:03:59;2.67;;;1.73;;
74152;SDS011;62505;46.070;14.492;2023-07-31T07:06:25;2.65;;;1.50;;
74152;SDS011;62505;46.070;14.492;2023-07-31T07:08:54;6.43;;;1.52;;
74152;SDS011;62505;46.070;14.492;2023-07-31T07:11:21;7.55;;;1.40;;
74152;SDS011;62505;46.070;14.492;2023-07-31T07:13:47;3.72;;;1.45;;
74152;SDS011;62505;46.070;14.492;2023-07-31T07:16:15;7.05;;;1.40;;
74152;SDS011;62505;46.070;14.492;2023-07-31T07:18:41;4.10;;;1.67;;
74152;SDS011;62505;46.070;14.492;2023-07-31T07:21:08;1.10;;;1.00;;
74152;SDS011;62505;46.070;14.492;2023-07-31T07:23:39;6.00;;;1.30;;
74152;SDS011;62505;46.070;14.492;2023-07-31T07:26:07;3.83;;;1.40;;
74152;SDS011;62505;46.070;14.492;2023-07-31T07:28:34;6.25;;;1.50;;
74152;SDS011;62505;46.070;14.492;2023-07-31T07:31:02;1.95;;;1.30;;
74152;SDS011;62505;46.070;14.492;2023-07-31T07:33:29;5.82;;;1.75;;
74152;SDS011;62505;46.070;14.492;2023-07-31T07:35:59;2.75;;;1.45;;
74152;SDS011;62505;46.070;14.492;2023-07-31T07:38:26;5.22;;;1.30;;
74152;SDS011;62505;46.070;14.492;2023-07-31T07:40:53;2.20;;;1.27;;
74152;SDS011;62505;46.070;14.492;2023-07-31T07:43:22;4.15;;;1.30;;
74152;SDS011;62505;46.070;14.492;2023-07-31T07:45:49;2.63;;;1.23;;
74152;SDS011;62505;46.070;14.492;2023-07-31T07:48:16;5.40;;;1.25;;
74152;SDS011;62505;46.070;14.492;2023-07-31T07:50:43;6.22;;;1.30;;
74152;SDS011;62505;46.070;14.492;2023-07-31T07:53:10;2.60;;;1.30;;
74152;SDS011;62505;46.070;14.492;2023-07-31T07:55:36;6.43;;;1.40;;
74152;SDS011;62505;46.070;14.492;2023-07-31T07:58:03;2.55;;;1.10;;
74152;SDS011;62505;46.070;14.492;2023-07-31T08:00:31;4.28;;;1.33;;
74152;SDS011;62505;46.070;14.492;2023-07-31T08:02:58;5.18;;;1.40;;
74152;SDS011;62505;46.070;14.492;2023-07-31T08:05:25;3.72;;;1.40;;
74152;SDS011;62505;46.070;14.492;2023-07-31T08:07:52;4.40;;;1.73;;
74152;SDS011;62505;46.070;14.492;2023-07-31T08:10:19;3.00;;;1.42;;
74152;SDS011;62505;46.070;14.492;2023-07-31T08:12:46;2.78;;;1.45;;
74152;SDS011;62505;46.070;14.492;2023-07-31T08:15:13;3.92;;;1.70;;
74152;SDS011;62505;46.070;14.492;2023-07-31T08:17:41;1.55;;;1.20;;
74152;SDS011;62505;46.070;14.492;2023-07-31T08:20:08;1.90;;;1.25;;
74152;SDS011;62505;46.070;14.492;2023-07-31T08:22:36;2.20;;;1.23;;
74152;SDS011;62505;46.070;14.492;2023-07-31T08:25:03;2.13;;;1.17;;
74152;SDS011;62505;46.070;14.492;2023-07-31T08:27:31;3.00;;;1.63;;
74152;SDS011;62505;46.070;14.492;2023-07-31T08:29:58;1.95;;;1.40;;
74152;SDS011;62505;46.070;14.492;2023-07-31T08:32:25;3.65;;;1.80;;
74152;SDS011;62505;46.070;14.492;2023-07-31T08:34:53;1.83;;;1.25;;
74152;SDS011;62505;46.070;14.492;2023-07-31T08:37:20;1.90;;;1.55;;
74152;SDS011;62505;46.070;14.492;2023-07-31T08:39:47;3.28;;;1.77;;
74152;SDS011;62505;46.070;14.492;2023-07-31T08:42:14;4.93;;;1.58;;
74152;SDS011;62505;46.070;14.492;2023-07-31T08:44:41;4.95;;;1.25;;
74152;SDS011;62505;46.070;14.492;2023-07-31T08:47:09;1.92;;;1.45;;
74152;SDS011;62505;46.070;14.492;2023-07-31T08:49:36;3.15;;;1.60;;
74152;SDS011;62505;46.070;14.492;2023-07-31T08:52:07;2.38;;;1.45;;
74152;SDS011;62505;46.070;14.492;2023-07-31T08:54:34;1.65;;;1.20;;
74152;SDS011;62505;46.070;14.492;2023-07-31T08:57:00;2.83;;;1.58;;
74152;SDS011;62505;46.070;14.492;2023-07-31T08:59:28;1.80;;;1.40;;
74152;SDS011;62505;46.070;14.492;2023-07-31T09:01:57;2.50;;;1.70;;
74152;SDS011;62505;46.070;14.492;2023-07-31T09:04:26;2.67;;;1.85;;
74152;SDS011;62505;46.070;14.492;2023-07-31T09:06:54;2.35;;;1.52;;
74152;SDS011;62505;46.070;14.492;2023-07-31T09:09:27;2.03;;;1.70;;
74152;SDS011;62505;46.070;14.492;2023-07-31T09:11:54;2.67;;;1.40;;
74152;SDS011;62505;46.070;14.492;2023-07-31T09:14:22;3.55;;;1.70;;
74152;SDS011;62505;46.070;14.492;2023-07-31T09:16:51;6.32;;;2.20;;
74152;SDS011;62505;46.070;14.492;2023-07-31T09:19:24;6.20;;;1.73;;
74152;SDS011;62505;46.070;14.492;2023-07-31T09:21:52;4.80;;;1.83;;
74152;SDS011;62505;46.070;14.492;2023-07-31T09:24:24;7.60;;;1.70;;
74152;SDS011;62505;46.070;14.492;2023-07-31T09:26:54;7.05;;;1.90;;
74152;SDS011;62505;46.070;14.492;2023-07-31T09:29:22;3.83;;;1.75;;
74152;SDS011;62505;46.070;14.492;2023-07-31T09:31:50;6.95;;;2.03;;
74152;SDS011;62505;46.070;14.492;2023-07-31T09:34:17;4.65;;;1.60;;
74152;SDS011;62505;46.070;14.492;2023-07-31T09:36:45;10.55;;;2.20;;
74152;SDS011;62505;46.070;14.492;2023-07-31T09:39:13;11.30;;;1.95;;
74152;SDS011;62505;46.070;14.492;2023-07-31T09:41:42;3.90;;;1.60;;
74152;SDS011;62505;46.070;14.492;2023-07-31T09:44:11;4.00;;;1.55;;
74152;SDS011;62505;46.070;14.492;2023-07-31T09:46:38;5.68;;;1.48;;
74152;SDS011;62505;46.070;14.492;2023-07-31T09:49:06;8.50;;;2.15;;
74152;SDS011;62505;46.070;14.492;2023-07-31T09:51:34;2.33;;;1.40;;
74152;SDS011;62505;46.070;14.492;2023-07-31T09:54:04;4.70;;;1.92;;
74152;SDS011;62505;46.070;14.492;2023-07-31T09:56:36;6.13;;;1.88;;
74152;SDS011;62505;46.070;14.492;2023-07-31T09:59:07;5.47;;;1.35;;
74152;SDS011;62505;46.070;14.492;2023-07-31T10:01:37;4.90;;;1.48;;
74152;SDS011;62505;46.070;14.492;2023-07-31T10:04:05;5.00;;;1.60;;
74152;SDS011;62505;46.070;14.492;2023-07-31T10:06:34;2.72;;;1.60;;
74152;SDS011;62505;46.070;14.492;2023-07-31T10:09:03;6.75;;;1.60;;
74152;SDS011;62505;46.070;14.492;2023-07-31T10:11:34;11.98;;;2.03;;
74152;SDS011;62505;46.070;14.492;2023-07-31T10:14:04;7.22;;;1.55;;
74152;SDS011;62505;46.070;14.492;2023-07-31T10:16:33;4.15;;;1.67;;
74152;SDS011;62505;46.070;14.492;2023-07-31T10:19:07;2.90;;;1.95;;
74152;SDS011;62505;46.070;14.492;2023-07-31T10:21:34;4.82;;;1.77;;
74152;SDS011;62505;46.070;14.492;2023-07-31T10:24:03;3.28;;;1.30;;
74152;SDS011;62505;46.070;14.492;2023-07-31T10:26:31;4.53;;;1.48;;
74152;SDS011;62505;46.070;14.492;2023-07-31T10:28:58;7.50;;;1.55;;
74152;SDS011;62505;46.070;14.492;2023-07-31T10:31:26;5.97;;;1.80;;
74152;SDS011;62505;46.070;14.492;2023-07-31T10:33:54;4.50;;;1.77;;
74152;SDS011;62505;46.070;14.492;2023-07-31T10:36:23;6.60;;;1.50;;
74152;SDS011;62505;46.070;14.492;2023-07-31T10:38:50;2.58;;;1.45;;
74152;SDS011;62505;46.070;14.492;2023-07-31T10:41:17;4.90;;;1.30;;
74152;SDS011;62505;46.070;14.492;2023-07-31T10:43:45;2.83;;;1.48;;
74152;SDS011;62505;46.070;14.492;2023-07-31T10:46:13;3.35;;;1.80;;
74152;SDS011;62505;46.070;14.492;2023-07-31T10:48:40;5.43;;;1.75;;
74152;SDS011;62505;46.070;14.492;2023-07-31T10:51:08;3.55;;;1.50;;
74152;SDS011;62505;46.070;14.492;2023-07-31T10:53:38;7.10;;;1.70;;
74152;SDS011;62505;46.070;14.492;2023-07-31T10:56:08;4.05;;;1.80;;
74152;SDS011;62505;46.070;14.492;2023-07-31T10:58:37;3.83;;;1.67;;
74152;SDS011;62505;46.070;14.492;2023-07-31T11:01:05;3.05;;;1.50;;
74152;SDS011;62505;46.070;14.492;2023-07-31T11:03:42;2.83;;;1.70;;
74152;SDS011;62505;46.070;14.492;2023-07-31T11:06:12;2.78;;;1.60;;
74152;SDS011;62505;46.070;14.492;2023-07-31T11:08:44;1.67;;;1.27;;
74152;SDS011;62505;46.070;14.492;2023-07-31T11:11:12;3.25;;;1.60;;
74152;SDS011;62505;46.070;14.492;2023-07-31T11:13:40;1.70;;;1.27;;
74152;SDS011;62505;46.070;14.492;2023-07-31T11:16:09;2.42;;;1.33;;
74152;SDS011;62505;46.070;14.492;2023-07-31T11:18:38;2.13;;;1.60;;
74152;SDS011;62505;46.070;14.492;2023-07-31T11:21:05;5.07;;;1.50;;
74152;SDS011;62505;46.070;14.492;2023-07-31T11:23:33;3.55;;;1.83;;
74152;SDS011;62505;46.070;14.492;2023-07-31T11:26:01;4.30;;;1.38;;
74152;SDS011;62505;46.070;14.492;2023-07-31T11:28:31;5.03;;;1.60;;
74152;SDS011;62505;46.070;14.492;2023-07-31T11:30:59;2.38;;;1.67;;
74152;SDS011;62505;46.070;14.492;2023-07-31T11:33:26;1.98;;;1.48;;
74152;SDS011;62505;46.070;14.492;2023-07-31T11:35:53;2.05;;;1.50;;
74152;SDS011;62505;46.070;14.492;2023-07-31T11:38:21;1.33;;;1.20;;
74152;SDS011;62505;46.070;14.492;2023-07-31T11:40:49;5.38;;;1.67;;
74152;SDS011;62505;46.070;14.492;2023-07-31T11:43:17;1.67;;;1.13;;
74152;SDS011;62505;46.070;14.492;2023-07-31T11:45:46;1.63;;;1.33;;
74152;SDS011;62505;46.070;14.492;2023-07-31T11:48:20;2.63;;;1.58;;
74152;SDS011;62505;46.070;14.492;2023-07-31T11:50:49;3.22;;;1.40;;
74152;SDS011;62505;46.070;14.492;2023-07-31T11:53:17;2.03;;;1.50;;
74152;SDS011;62505;46.070;14.492;2023-07-31T11:55:46;2.85;;;1.63;;
74152;SDS011;62505;46.070;14.492;2023-07-31T11:58:14;1.70;;;1.20;;
74152;SDS011;62505;46.070;14.492;2023-07-31T12:00:43;2.40;;;1.40;;
74152;SDS011;62505;46.070;14.492;2023-07-31T12:03:11;2.95;;;1.67;;
74152;SDS011;62505;46.070;14.492;2023-07-31T12:05:38;2.00;;;1.20;;
74152;SDS011;62505;46.070;14.492;2023-07-31T12:08:08;2.22;;;1.48;;
74152;SDS011;62505;46.070;14.492;2023-07-31T12:10:37;2.30;;;1.40;;
74152;SDS011;62505;46.070;14.492;2023-07-31T12:13:07;4.38;;;1.88;;
74152;SDS011;62505;46.070;14.492;2023-07-31T12:15:38;2.28;;;1.40;;
74152;SDS011;62505;46.070;14.492;2023-07-31T12:18:08;1.92;;;1.45;;
74152;SDS011;62505;46.070;14.492;2023-07-31T12:20:40;1.83;;;1.45;;
74152;SDS011;62505;46.070;14.492;2023-07-31T12:23:12;1.55;;;1.40;;
74152;SDS011;62505;46.070;14.492;2023-07-31T12:25:40;2.30;;;1.40;;
74152;SDS011;62505;46.070;14.492;2023-07-31T12:28:07;2.33;;;1.45;;
74152;SDS011;62505;46.070;14.492;2023-07-31T12:30:37;1.98;;;1.33;;
74152;SDS011;62505;46.070;14.492;2023-07-31T12:33:05;2.30;;;1.40;;
74152;SDS011;62505;46.070;14.492;2023-07-31T12:35:38;2.08;;;1.67;;
74152;SDS011;62505;46.070;14.492;2023-07-31T12:38:06;1.98;;;1.30;;
74152;SDS011;62505;46.070;14.492;2023-07-31T12:40:35;2.33;;;1.67;;
74152;SDS011;62505;46.070;14.492;2023-07-31T12:43:03;1.45;;;1.17;;
74152;SDS011;62505;46.070;14.492;2023-07-31T12:45:30;1.92;;;1.40;;
74152;SDS011;62505;46.070;14.492;2023-07-31T12:47:57;2.08;;;1.60;;
74152;SDS011;62505;46.070;14.492;2023-07-31T12:50:24;1.63;;;1.20;;
74152;SDS011;62505;46.070;14.492;2023-07-31T12:52:53;1.75;;;1.50;;
74152;SDS011;62505;46.070;14.492;2023-07-31T12:55:20;2.60;;;1.38;;
74152;SDS011;62505;46.070;14.492;2023-07-31T12:57:47;2.03;;;1.55;;
74152;SDS011;62505;46.070;14.492;2023-07-31T13:00:14;2.17;;;1.98;;
74152;SDS011;62505;46.070;14.492;2023-07-31T13:02:41;2.05;;;1.70;;
74152;SDS011;62505;46.070;14.492;2023-07-31T13:05:08;1.58;;;1.27;;
74152;SDS011;62505;46.070;14.492;2023-07-31T13:07:35;1.90;;;1.70;;
74152;SDS011;62505;46.070;14.492;2023-07-31T13:10:04;2.47;;;1.63;;
74152;SDS011;62505;46.070;14.492;2023-07-31T13:12:32;2.30;;;1.58;;
74152;SDS011;62505;46.070;14.492;2023-07-31T13:14:59;2.47;;;1.80;;
74152;SDS011;62505;46.070;14.492;2023-07-31T13:17:25;2.55;;;1.60;;
74152;SDS011;62505;46.070;14.492;2023-07-31T13:19:51;2.80;;;1.60;;
74152;SDS011;62505;46.070;14.492;2023-07-31T13:22:18;2.20;;;1.80;;
74152;SDS011;62505;46.070;14.492;2023-07-31T13:24:45;2.70;;;1.45;;
74152;SDS011;62505;46.070;14.492;2023-07-31T13:27:14;4.30;;;1.60;;
74152;SDS011;62505;46.070;14.492;2023-07-31T13:29:43;3.05;;;1.63;;
74152;SDS011;62505;46.070;14.492;2023-07-31T13:32:10;3.03;;;1.58;;
74152;SDS011;62505;46.070;14.492;2023-07-31T13:34:37;2.85;;;1.70;;
74152;SDS011;62505;46.070;14.492;2023-07-31T13:37:04;3.05;;;1.38;;
74152;SDS011;62505;46.070;14.492;2023-07-31T13:39:32;2.35;;;1.45;;
74152;SDS011;62505;46.070;14.492;2023-07-31T13:41:59;4.28;;;1.85;;
74152;SDS011;62505;46.070;14.492;2023-07-31T13:44:27;2.75;;;1.80;;
74152;SDS011;62505;46.070;14.492;2023-07-31T13:46:54;2.67;;;1.52;;
74152;SDS011;62505;46.070;14.492;2023-07-31T13:49:21;3.47;;;1.75;;
74152;SDS011;62505;46.070;14.492;2023-07-31T13:51:48;2.13;;;1.58;;
74152;SDS011;62505;46.070;14.492;2023-07-31T13:54:15;4.60;;;1.85;;
74152;SDS011;62505;46.070;14.492;2023-07-31T13:56:42;2.33;;;1.52;;
74152;SDS011;62505;46.070;14.492;2023-07-31T13:59:09;4.20;;;1.90;;
74152;SDS011;62505;46.070;14.492;2023-07-31T14:01:38;6.60;;;2.25;;
74152;SDS011;62505;46.070;14.492;2023-07-31T14:04:05;5.28;;;2.10;;
74152;SDS011;62505;46.070;14.492;2023-07-31T14:06:32;4.35;;;2.20;;
74152;SDS011;62505;46.070;14.492;2023-07-31T14:08:58;3.13;;;2.00;;
74152;SDS011;62505;46.070;14.492;2023-07-31T14:11:25;4.25;;;1.90;;
74152;SDS011;62505;46.070;14.492;2023-07-31T14:13:52;5.50;;;1.95;;
74152;SDS011;62505;46.070;14.492;2023-07-31T14:16:19;3.35;;;1.77;;
74152;SDS011;62505;46.070;14.492;2023-07-31T14:18:48;3.45;;;1.80;;
74152;SDS011;62505;46.070;14.492;2023-07-31T14:21:15;4.30;;;1.88;;
74152;SDS011;62505;46.070;14.492;2023-07-31T14:23:44;3.25;;;1.90;;
74152;SDS011;62505;46.070;14.492;2023-07-31T14:26:11;4.72;;;1.90;;
74152;SDS011;62505;46.070;14.492;2023-07-31T14:28:38;3.13;;;1.70;;
74152;SDS011;62505;46.070;14.492;2023-07-31T14:31:05;3.95;;;1.52;;
74152;SDS011;62505;46.070;14.492;2023-07-31T14:33:32;2.88;;;1.95;;
74152;SDS011;62505;46.070;14.492;2023-07-31T14:36:00;5.15;;;1.77;;